HKWJ

Wajir Airport

Wajir, Kenya
METAR HKWJ 231800Z 00000KT CAVOK 30/16 Q1007
Observed Flight Rules
Jan-23 @ 18:00 UTC (5 hours ago) Visual Flight Rules
Wind Visibility Clouds
Calm 10,000+ meters
  • Clear skies
Temperatures Readings
Current 30°C / 86°F
Dewpoint 16°C / 61°F
Humidity 43%
Altimeter 29.73" Hg
Pressure 1007 hPa
Elevation 244
METAR HKWJ 231800Z 00000KT CAVOK 30/16 Q1007
Observed Flight Rules
Jan-23 @ 18:00 UTC
(5 hours ago)
VFR
Wind Visibility
Calm 10,000+ meters
Clouds
  • Clear skies
Temperature Dewpoint
30°C / 86°F 16°C / 61°F
Humidity Altimeter Pressure
43% 29.73" Hg 1007 hPa